Time;durP1;ratioP1;P1;durP2;ratioP2;P2;SDS_P1;SDS_P2;PMS_P1;PMS_P2;Temp;Humidity;BMP_temperature;BMP_pressure;BME280_temperature;BME280_humidity;BME280_pressure;Samples;Min_cycle;Max_cycle;Signal;HPM_P1;HPM_P2
2022/07/07 00:00:00;;;;;;;25.58;19.13;;;;;;;21.81;71.63;99525.22;5096550;28;20056;-86
2022/07/07 00:02:29;;;;;;;24.23;18.83;;;;;;;21.67;71.69;99504.59;5096384;28;20147;-86
2022/07/07 00:04:56;;;;;;;26.30;18.80;;;;;;;21.75;71.90;99532.63;5096189;28;20055;-86
2022/07/07 00:07:24;;;;;;;24.73;18.48;;;;;;;21.74;71.82;99537.06;5096032;28;20056;-86
2022/07/07 00:09:51;;;;;;;24.35;19.08;;;;;;;21.73;71.77;99530.03;5095876;28;20066;-86
2022/07/07 00:12:19;;;;;;;25.58;19.40;;;;;;;21.62;71.90;99511.09;5079127;28;20097;-85
2022/07/07 00:14:46;;;;;;;29.88;19.30;;;;;;;21.69;71.84;99520.50;5096445;28;20051;-88
2022/07/07 00:17:13;;;;;;;24.65;18.77;;;;;;;21.66;71.84;99516.19;5095983;28;20594;-86
2022/07/07 00:19:40;;;;;;;23.27;18.67;;;;;;;21.65;71.91;99513.59;5095577;28;20044;-85
2022/07/07 00:22:14;;;;;;;22.33;18.20;;;;;;;21.51;71.83;99503.63;5095697;28;20501;-83
2022/07/07 00:24:41;;;;;;;22.20;17.88;;;;;;;21.60;71.82;99523.59;5095486;28;20062;-87
2022/07/07 00:27:08;;;;;;;23.42;18.75;;;;;;;21.57;71.89;99515.75;5095610;28;20109;-87
2022/07/07 00:29:35;;;;;;;24.40;18.55;;;;;;;21.55;71.96;99509.66;5094152;28;20142;-85
2022/07/07 00:32:03;;;;;;;23.33;16.92;;;;;;;21.53;71.85;99511.50;5074889;28;20122;-85
2022/07/07 00:34:30;;;;;;;24.00;18.73;;;;;;;21.46;72.00;99519.75;5075743;28;20059;-85
2022/07/07 00:36:57;;;;;;;22.02;18.30;;;;;;;21.52;72.05;99520.44;5075765;28;20056;-85
2022/07/07 00:39:24;;;;;;;21.65;17.52;;;;;;;21.52;71.94;99523.09;5076108;28;20143;-86
2022/07/07 00:41:51;;;;;;;24.42;17.75;;;;;;;21.36;72.14;99491.00;5057817;28;20052;-85
2022/07/07 00:44:18;;;;;;;24.90;18.35;;;;;;;21.43;71.99;99511.09;5075044;28;20455;-87
2022/07/07 00:46:47;;;;;;;21.85;16.65;;;;;;;21.39;72.17;99507.69;5076844;28;20527;-85
2022/07/07 00:49:19;;;;;;;21.55;15.70;;;;;;;21.34;72.17;99503.50;5067351;28;20062;-83
2022/07/07 00:51:46;;;;;;;20.67;16.13;;;;;;;21.31;72.30;99501.00;5080354;28;20052;-83
2022/07/07 00:54:13;;;;;;;23.20;17.58;;;;;;;21.36;72.31;99514.91;5077309;28;20072;-86
2022/07/07 00:56:40;;;;;;;22.02;16.40;;;;;;;21.35;72.32;99519.38;5074218;28;20453;-84
2022/07/07 00:59:08;;;;;;;24.98;17.05;;;;;;;21.31;72.36;99511.63;5074915;28;20060;-84
2022/07/07 01:01:40;;;;;;;24.27;15.77;;;;;;;21.32;72.27;99519.53;5101784;28;20087;-83
2022/07/07 01:04:12;;;;;;;23.02;16.92;;;;;;;21.29;72.21;99506.38;5118379;28;20075;-86
2022/07/07 01:06:40;;;;;;;20.42;16.48;;;;;;;21.33;72.39;99521.25;5118263;28;20134;-85
2022/07/07 01:09:08;;;;;;;22.90;16.20;;;;;;;21.35;72.31;99518.53;5120937;28;20055;-81
2022/07/07 01:11:48;;;;;;;20.23;16.25;;;;;;;21.36;72.10;99512.25;5134083;28;20051;-84
2022/07/07 01:14:15;;;;;;;20.77;16.02;;;;;;;21.34;72.32;99520.31;5117300;28;20432;-84
2022/07/07 01:16:43;;;;;;;22.55;16.05;;;;;;;21.38;72.09;99524.56;5116619;28;20077;-84
2022/07/07 01:19:10;;;;;;;19.88;15.35;;;;;;;21.41;72.02;99523.56;5126812;28;20043;-83
2022/07/07 01:22:00;;;;;;;21.13;15.55;;;;;;;21.42;71.80;99517.31;5114816;28;20076;-84
2022/07/07 01:24:29;;;;;;;21.73;15.38;;;;;;;21.41;71.63;99523.56;5088941;28;20052;-82
2022/07/07 01:27:09;;;;;;;20.15;15.18;;;;;;;21.50;71.50;99517.84;5088879;28;20032;-84
2022/07/07 01:29:40;;;;;;;21.00;15.82;;;;;;;21.54;71.40;99514.09;5081479;28;20040;-85
2022/07/07 01:32:08;;;;;;;21.23;15.48;;;;;;;21.45;71.35;99494.16;5098891;28;20032;-85
2022/07/07 01:34:37;;;;;;;20.95;15.32;;;;;;;21.61;71.12;99519.97;5098446;28;20045;-87
2022/07/07 01:37:05;;;;;;;24.10;14.98;;;;;;;21.68;70.86;99521.41;5098708;28;20036;-87
2022/07/07 01:39:33;;;;;;;23.13;15.77;;;;;;;21.78;70.53;99522.69;5081454;28;20052;-83
2022/07/07 01:42:00;;;;;;;20.33;15.82;;;;;;;21.85;70.21;99509.97;5098451;28;20056;-84
2022/07/07 01:44:30;;;;;;;19.05;14.93;;;;;;;21.99;69.76;99507.50;5080873;28;20036;-86
2022/07/07 01:46:57;;;;;;;19.35;15.25;;;;;;;22.01;69.35;99486.16;5098177;28;20048;-85
2022/07/07 01:49:26;;;;;;;21.08;15.13;;;;;;;22.18;68.66;99498.63;5098422;28;20147;-83
2022/07/07 01:51:53;;;;;;;17.88;14.38;;;;;;;22.36;68.33;99505.69;5080745;28;20031;-86
2022/07/07 01:54:20;;;;;;;20.88;14.75;;;;;;;22.54;67.88;99505.69;5098121;28;20115;-83
2022/07/07 01:56:47;;;;;;;20.27;14.88;;;;;;;22.52;67.24;99473.84;5080935;28;20065;-84
2022/07/07 01:59:14;;;;;;;19.73;14.60;;;;;;;22.81;66.73;99493.59;5098392;28;20043;-85
2022/07/07 02:01:41;;;;;;;19.10;13.85;;;;;;;23.08;65.84;99504.63;5115719;27;20036;-84
2022/07/07 02:04:08;;;;;;;17.38;14.75;;;;;;;23.31;65.10;99506.00;5104421;27;20028;-83
2022/07/07 02:06:38;;;;;;;19.05;14.00;;;;;;;23.31;64.69;99490.03;5075328;28;20052;-86
2022/07/07 02:09:06;;;;;;;18.30;14.10;;;;;;;23.42;64.36;99492.09;5076181;28;20060;-85
2022/07/07 02:11:33;;;;;;;20.23;14.48;;;;;;;23.74;63.89;99510.75;5082817;28;20142;-85
2022/07/07 02:14:01;;;;;;;19.83;12.98;;;;;;;24.12;62.45;99513.09;5107750;28;20048;-83
2022/07/07 02:16:29;;;;;;;17.38;13.00;;;;;;;24.52;60.81;99516.97;5086647;28;20047;-84
2022/07/07 02:18:59;;;;;;;16.75;13.20;;;;;;;24.98;59.47;99512.44;5104617;28;20063;-82
2022/07/07 02:21:26;;;;;;;19.52;13.20;;;;;;;25.58;57.83;99508.72;5105358;28;20048;-83
2022/07/07 02:23:54;;;;;;;17.98;12.85;;;;;;;26.05;56.14;99521.69;5083085;28;20047;-84
2022/07/07 02:26:22;;;;;;;16.42;13.55;;;;;;;25.95;56.23;99509.88;5105966;28;20047;-83
2022/07/07 02:28:49;;;;;;;17.85;13.32;;;;;;;26.17;55.73;99509.31;5104044;28;20047;-85
2022/07/07 02:31:17;;;;;;;18.63;13.13;;;;;;;27.20;53.01;99504.06;5102347;28;20113;-85
2022/07/07 02:33:45;;;;;;;19.42;13.30;;;;;;;28.78;48.91;99501.28;5086615;28;20133;-85
2022/07/07 02:36:12;;;;;;;18.17;12.88;;;;;;;30.34;45.12;99505.75;5103513;28;20039;-84
2022/07/07 02:38:40;;;;;;;20.77;12.68;;;;;;;31.53;42.16;99487.41;5100822;28;20055;-85
2022/07/07 02:41:08;;;;;;;16.90;12.60;;;;;;;32.79;39.46;99492.88;5112190;28;20052;-85
2022/07/07 02:43:35;;;;;;;27.50;13.32;;;;;;;33.50;38.30;99499.59;5086221;28;20093;-85
2022/07/07 02:46:03;;;;;;;19.98;12.43;;;;;;;34.04;36.91;99495.13;5095241;28;20052;-86
2022/07/07 02:48:32;;;;;;;20.42;12.63;;;;;;;34.22;36.42;99495.16;5095401;28;20066;-87
2022/07/07 02:51:01;;;;;;;19.40;12.02;;;;;;;34.08;36.48;99502.94;5082518;28;20067;-84
2022/07/07 02:53:28;;;;;;;16.90;12.15;;;;;;;33.55;37.30;99505.38;5112414;28;20054;-85
2022/07/07 02:55:56;;;;;;;23.80;12.82;;;;;;;33.56;37.16;99500.84;5094901;28;20831;-87
2022/07/07 02:58:23;;;;;;;19.27;12.02;;;;;;;33.89;36.15;99483.13;5093738;28;20056;-86
2022/07/07 03:00:54;;;;;;;14.50;11.70;;;;;;;34.55;35.46;99494.56;5093386;28;20091;-84
2022/07/07 03:03:22;;;;;;;15.05;11.70;;;;;;;33.61;36.85;99496.69;5092447;28;20452;-86
2022/07/07 03:05:49;;;;;;;18.08;12.10;;;;;;;31.98;40.02;99495.88;5067145;28;20056;-87
2022/07/07 03:08:17;;;;;;;16.42;12.00;;;;;;;31.60;40.76;99467.81;5090282;28;20052;-86
2022/07/07 03:10:45;;;;;;;16.70;12.38;;;;;;;31.11;41.58;99504.56;5072707;28;20056;-86
2022/07/07 03:13:11;;;;;;;15.93;11.68;;;;;;;30.48;43.01;99477.66;5073027;28;20051;-85
2022/07/07 03:15:39;;;;;;;14.82;11.77;;;;;;;32.29;39.83;99500.28;5072782;28;20045;-85
2022/07/07 03:18:06;;;;;;;15.13;11.80;;;;;;;33.97;36.41;99490.50;5073037;28;20056;-85
2022/07/07 03:20:33;;;;;;;16.92;12.50;;;;;;;35.36;33.88;99501.53;5073228;28;20091;-87
2022/07/07 03:23:00;;;;;;;12.82;11.25;;;;;;;36.38;32.10;99495.00;5089702;28;20052;-87
2022/07/07 03:25:30;;;;;;;14.20;11.77;;;;;;;36.45;31.77;99492.47;5054465;28;20398;-85
2022/07/07 03:27:57;;;;;;;14.13;12.10;;;;;;;36.23;32.22;99515.75;5076823;28;20048;-85
2022/07/07 03:30:24;;;;;;;16.15;12.13;;;;;;;36.35;31.92;99497.22;5095592;28;20060;-86
2022/07/07 03:32:51;;;;;;;13.70;12.13;;;;;;;36.03;32.41;99497.00;5113992;28;20052;-89
2022/07/07 03:35:18;;;;;;;16.40;11.40;;;;;;;36.25;32.40;99506.41;5117803;28;20057;-87
2022/07/07 03:37:45;;;;;;;13.90;11.13;;;;;;;36.73;31.23;99505.72;5119479;28;20061;-84
2022/07/07 03:40:12;;;;;;;14.50;11.43;;;;;;;37.51;30.17;99514.00;5099246;28;20062;-88
2022/07/07 03:42:40;;;;;;;13.65;11.57;;;;;;;37.78;29.85;99516.47;5095656;28;20047;-88
2022/07/07 03:45:08;;;;;;;13.15;11.27;;;;;;;38.26;29.26;99490.75;5095122;28;20051;-85
2022/07/07 03:47:35;;;;;;;17.40;11.13;;;;;;;38.63;28.50;99520.97;5113005;28;20101;-87
2022/07/07 03:50:02;;;;;;;12.27;10.93;;;;;;;38.85;27.94;99505.59;5114824;28;20048;-87
2022/07/07 03:52:29;;;;;;;12.85;10.85;;;;;;;38.91;27.68;99500.25;5117916;28;20068;-86
2022/07/07 03:54:57;;;;;;;12.65;10.43;;;;;;;38.62;28.01;99494.75;5102056;28;20564;-89
2022/07/07 03:57:24;;;;;;;15.73;11.43;;;;;;;37.67;29.60;99510.38;5099019;28;20100;-85
2022/07/07 03:59:51;;;;;;;12.88;11.00;;;;;;;37.33;30.13;99515.28;5116697;28;20118;-86
2022/07/07 04:02:18;;;;;;;11.77;10.70;;;;;;;37.48;29.83;99518.97;5117064;28;20066;-85
2022/07/07 04:04:45;;;;;;;12.55;10.82;;;;;;;36.66;30.89;99502.84;5064408;28;20047;-84
2022/07/07 04:07:12;;;;;;;12.15;10.95;;;;;;;36.58;31.45;99516.41;5116035;28;20059;-83
2022/07/07 04:09:39;;;;;;;12.43;11.05;;;;;;;38.43;28.78;99526.94;5116292;28;20078;-86
2022/07/07 04:12:07;;;;;;;14.05;11.05;;;;;;;39.31;27.35;99522.66;5116242;28;20048;-84
2022/07/07 04:14:34;;;;;;;16.33;10.65;;;;;;;39.05;27.50;99528.63;5116553;28;20058;-87
2022/07/07 04:17:01;;;;;;;14.73;11.05;;;;;;;37.64;29.78;99524.34;5114141;28;20048;-84
2022/07/07 04:19:28;;;;;;;22.20;11.75;;;;;;;36.72;31.13;99523.06;5115977;28;20056;-85
2022/07/07 04:21:55;;;;;;;14.57;10.95;;;;;;;35.21;33.39;99515.69;5118506;28;20087;-86
2022/07/07 04:24:22;;;;;;;20.73;11.38;;;;;;;34.09;36.07;99527.16;5120028;28;20476;-84
2022/07/07 04:26:49;;;;;;;11.68;10.57;;;;;;;33.19;37.27;99532.34;5115664;28;20100;-81
2022/07/07 04:29:25;;;;;;;12.30;11.05;;;;;;;32.28;38.27;99518.38;5115077;28;20051;-89
2022/07/07 04:31:53;;;;;;;12.80;10.68;;;;;;;32.10;38.97;99529.03;5105314;28;20073;-83
2022/07/07 04:34:22;;;;;;;12.15;10.63;;;;;;;31.88;39.60;99532.81;5107659;28;20451;-82
2022/07/07 04:36:49;;;;;;;15.95;10.60;;;;;;;31.66;40.01;99528.47;5101309;28;20048;-83
2022/07/07 04:39:17;;;;;;;14.90;10.65;;;;;;;31.65;39.99;99528.66;5101700;28;20052;-81
2022/07/07 04:41:44;;;;;;;13.60;11.73;;;;;;;31.70;40.22;99515.56;5108625;28;20109;-83
2022/07/07 04:44:11;;;;;;;12.95;11.13;;;;;;;31.57;40.29;99513.13;5093864;28;20048;-84
2022/07/07 04:46:38;;;;;;;13.57;11.07;;;;;;;31.59;40.58;99533.59;5094990;28;20048;-85
2022/07/07 04:49:05;;;;;;;13.98;11.10;;;;;;;31.38;40.69;99516.56;5077743;28;20048;-83
2022/07/07 04:51:35;;;;;;;13.73;10.98;;;;;;;31.05;41.52;99526.66;5095667;28;20054;-83
2022/07/07 04:54:03;;;;;;;14.00;10.70;;;;;;;30.90;41.67;99515.38;5081727;28;20467;-84
2022/07/07 04:56:30;;;;;;;12.48;10.50;;;;;;;30.99;41.51;99514.56;5092639;28;20055;-83
2022/07/07 04:58:57;;;;;;;12.30;10.88;;;;;;;30.70;42.01;99506.28;5090967;28;20064;-82
2022/07/07 05:01:24;;;;;;;11.52;10.27;;;;;;;30.67;42.36;99522.72;5109857;28;20058;-82
2022/07/07 05:03:51;;;;;;;12.05;10.05;;;;;;;30.44;42.29;99500.44;5109392;28;20066;-80
2022/07/07 05:06:18;;;;;;;12.75;10.93;;;;;;;30.23;42.99;99504.94;5106036;28;20058;-83
2022/07/07 05:08:45;;;;;;;14.00;10.93;;;;;;;30.18;43.06;99524.19;5076210;28;20048;-81
2022/07/07 05:11:12;;;;;;;12.18;10.82;;;;;;;30.20;43.04;99525.75;5094123;28;20044;-83
2022/07/07 05:13:39;;;;;;;13.73;10.55;;;;;;;30.08;43.13;99524.06;5094815;28;20056;-82
2022/07/07 05:16:06;;;;;;;12.85;10.02;;;;;;;30.01;43.72;99521.03;5092890;28;20138;-82
2022/07/07 05:18:51;;;;;;;12.25;10.27;;;;;;;30.04;43.29;99516.38;5093183;28;20075;-82
2022/07/07 05:21:18;;;;;;;10.82;9.30;;;;;;;30.16;43.05;99515.38;5074999;28;20051;-82
2022/07/07 05:23:45;;;;;;;15.38;10.55;;;;;;;30.38;42.65;99504.50;5093121;28;20063;-84
2022/07/07 05:26:12;;;;;;;12.82;10.13;;;;;;;30.40;42.03;99470.22;5093296;28;20136;-83
2022/07/07 05:28:42;;;;;;;11.82;9.60;;;;;;;30.91;41.29;99500.03;5093370;28;20054;-84
2022/07/07 05:31:12;;;;;;;10.93;9.60;;;;;;;30.82;41.14;99486.38;5108626;28;20055;-80
2022/07/07 05:33:39;;;;;;;10.88;9.77;;;;;;;30.72;40.91;99482.75;5093443;28;20051;-82
2022/07/07 05:36:08;;;;;;;10.55;9.55;;;;;;;30.75;41.62;99489.72;5094868;28;20083;-83
2022/07/07 05:38:35;;;;;;;13.23;9.40;;;;;;;30.86;40.76;99492.38;5075562;28;20511;-82
2022/07/07 05:41:02;;;;;;;11.65;9.55;;;;;;;30.93;40.83;99468.41;5091887;28;20056;-81
2022/07/07 05:43:29;;;;;;;12.85;9.50;;;;;;;31.28;40.61;99488.69;5074878;28;20405;-81
2022/07/07 05:45:56;;;;;;;10.95;9.50;;;;;;;31.56;40.16;99479.03;5093764;28;20063;-82
2022/07/07 05:48:23;;;;;;;12.95;9.75;;;;;;;31.56;40.21;99465.56;5093741;28;20105;-81
2022/07/07 05:50:50;;;;;;;11.73;8.98;;;;;;;31.70;39.32;99457.03;5093395;28;20146;-82
2022/07/07 05:53:17;;;;;;;10.40;9.10;;;;;;;31.83;39.23;99468.41;5094664;28;20056;-82
2022/07/07 05:55:44;;;;;;;13.23;9.02;;;;;;;31.91;38.49;99451.50;5094114;28;20155;-82
2022/07/07 05:58:12;;;;;;;9.90;8.73;;;;;;;32.15;38.33;99471.88;5094407;28;20048;-82
2022/07/07 06:00:40;;;;;;;13.70;9.18;;;;;;;32.24;37.94;99468.31;5075741;28;20192;-82
2022/07/07 06:03:07;;;;;;;10.13;9.15;;;;;;;32.14;38.16;99471.03;5093733;28;20059;-83
2022/07/07 06:05:34;;;;;;;11.75;8.95;;;;;;;32.06;38.63;99470.03;5093743;28;20146;-83
2022/07/07 06:08:01;;;;;;;13.68;9.13;;;;;;;32.02;38.63;99451.41;5075212;28;20079;-83
2022/07/07 06:10:28;;;;;;;11.95;9.30;;;;;;;32.22;38.04;99479.28;5093211;28;20109;-82
2022/07/07 06:12:55;;;;;;;13.35;8.80;;;;;;;32.22;38.13;99475.69;5092716;28;20044;-82
2022/07/07 06:15:23;;;;;;;10.73;8.98;;;;;;;32.36;37.91;99477.13;5093092;28;20051;-82
2022/07/07 06:17:50;;;;;;;13.25;9.23;;;;;;;32.53;37.72;99481.81;5093100;28;20508;-82
2022/07/07 06:20:36;;;;;;;10.07;8.90;;;;;;;32.44;37.77;99458.34;5093196;28;20048;-83
2022/07/07 06:23:03;;;;;;;12.82;8.38;;;;;;;32.20;36.85;99469.59;5092867;28;20058;-82
2022/07/07 06:25:30;;;;;;;13.02;8.77;;;;;;;31.88;37.51;99469.84;5108784;28;20056;-81
2022/07/07 06:27:58;;;;;;;11.02;8.98;;;;;;;31.81;37.67;99477.66;5097805;28;20059;-81
2022/07/07 06:30:25;;;;;;;9.80;8.80;;;;;;;32.06;37.55;99476.28;5097380;28;20052;-81
2022/07/07 06:32:52;;;;;;;11.77;8.93;;;;;;;32.06;37.36;99453.84;5097547;28;20412;-83
2022/07/07 06:35:20;;;;;;;10.02;8.90;;;;;;;32.17;36.96;99461.78;5093686;28;20564;-82
2022/07/07 06:37:48;;;;;;;11.30;8.73;;;;;;;32.01;38.20;99479.41;5092651;28;20064;-82
2022/07/07 06:40:15;;;;;;;14.85;10.32;;;;;;;32.12;37.66;99462.22;5092759;28;20075;-83
2022/07/07 06:42:42;;;;;;;11.77;10.55;;;;;;;32.27;37.44;99470.75;5075334;28;20489;-83
2022/07/07 06:45:13;;;;;;;12.38;9.23;;;;;;;32.47;37.56;99468.00;5075181;28;20060;-83
2022/07/07 06:47:43;;;;;;;12.93;9.57;;;;;;;32.41;37.55;99454.06;5092894;28;20083;-82
2022/07/07 06:50:11;;;;;;;10.80;9.50;;;;;;;32.22;37.23;99473.00;5057795;28;20056;-82
2022/07/07 06:52:38;;;;;;;13.40;9.18;;;;;;;32.15;37.70;99469.19;5093454;28;20424;-84
2022/07/07 06:55:05;;;;;;;12.07;9.60;;;;;;;32.03;37.47;99450.41;5093802;28;20052;-83
2022/07/07 06:57:37;;;;;;;11.48;9.32;;;;;;;32.01;37.40;99467.78;5106362;28;20493;-82
2022/07/07 07:00:06;;;;;;;11.63;9.88;;;;;;;31.86;37.84;99431.31;5094772;28;20056;-82
2022/07/07 07:02:33;;;;;;;14.57;10.30;;;;;;;32.22;37.52;99467.59;5094098;28;20056;-82
2022/07/07 07:05:00;;;;;;;13.18;10.75;;;;;;;32.01;37.64;99455.09;5105638;28;20028;-83
2022/07/07 07:07:30;;;;;;;12.65;11.15;;;;;;;31.93;37.71;99470.28;5117500;28;20058;-82
2022/07/07 07:09:57;;;;;;;13.43;10.38;;;;;;;31.89;38.20;99475.09;5116828;28;20040;-83
2022/07/07 07:12:24;;;;;;;12.98;10.25;;;;;;;31.87;38.03;99454.63;5073063;28;20059;-82
2022/07/07 07:14:51;;;;;;;13.52;9.77;;;;;;;31.87;38.40;99476.25;5095796;28;20452;-83
2022/07/07 07:17:18;;;;;;;14.68;10.15;;;;;;;31.69;38.39;99471.53;5095134;28;20052;-82
2022/07/07 07:19:45;;;;;;;13.68;9.63;;;;;;;31.72;38.53;99465.00;5094145;28;20055;-82
2022/07/07 07:22:12;;;;;;;15.57;11.52;;;;;;;31.75;38.47;99472.81;5074845;28;20048;-82
2022/07/07 07:24:39;;;;;;;14.05;11.00;;;;;;;31.75;38.79;99462.00;5092879;28;20086;-83
2022/07/07 07:27:06;;;;;;;13.65;10.85;;;;;;;31.92;38.24;99474.84;5097162;28;20528;-83
2022/07/07 07:29:33;;;;;;;15.10;11.32;;;;;;;31.95;38.62;99485.34;5096373;28;20060;-83
2022/07/07 07:32:00;;;;;;;14.55;11.10;;;;;;;31.88;38.58;99478.81;5096175;28;20044;-84
2022/07/07 07:34:27;;;;;;;16.25;11.40;;;;;;;31.90;38.76;99476.81;5096190;28;20056;-81
2022/07/07 07:36:55;;;;;;;15.85;11.30;;;;;;;31.99;38.97;99462.50;5095996;28;20075;-83
2022/07/07 07:39:22;;;;;;;15.75;11.00;;;;;;;32.03;38.82;99469.31;5096087;28;20067;-83
2022/07/07 07:41:49;;;;;;;13.63;11.10;;;;;;;32.01;38.15;99460.50;5095951;28;20056;-82
2022/07/07 07:45:09;;;;;;;15.70;10.57;;;;;;;31.97;38.77;99463.59;5077584;28;20048;-83
2022/07/07 07:47:04;;;;;;;14.05;10.80;;;;;;;32.09;37.77;99469.75;5095958;28;20250;-82
2022/07/07 07:49:32;;;;;;;15.63;10.80;;;;;;;32.30;37.46;99469.59;5077877;28;20074;-81
2022/07/07 07:51:58;;;;;;;15.73;11.52;;;;;;;32.42;37.27;99472.00;5095515;28;20058;-81
2022/07/07 07:54:32;;;;;;;16.38;9.85;;;;;;;32.41;36.66;99466.72;5095588;28;20509;-82
2022/07/07 07:56:59;;;;;;;25.08;10.57;;;;;;;32.35;37.30;99460.06;5095610;28;20051;-82
2022/07/07 07:59:26;;;;;;;13.85;9.57;;;;;;;32.08;37.25;99477.00;5095848;28;20142;-82
2022/07/07 08:01:53;;;;;;;15.73;10.18;;;;;;;31.97;37.48;99444.69;5095583;28;20104;-83
2022/07/07 08:04:20;;;;;;;13.27;10.30;;;;;;;32.02;37.54;99466.75;5077617;28;20059;-84
2022/07/07 08:06:47;;;;;;;14.65;9.68;;;;;;;32.08;37.48;99468.06;5095517;28;20075;-83
2022/07/07 08:09:15;;;;;;;11.27;10.07;;;;;;;32.20;37.74;99462.34;5095548;28;20052;-83
2022/07/07 08:11:42;;;;;;;10.93;9.07;;;;;;;32.27;37.16;99481.53;5077328;28;20504;-82
2022/07/07 08:14:09;;;;;;;13.45;9.65;;;;;;;32.18;37.66;99479.69;5077618;28;20081;-81
2022/07/07 08:16:36;;;;;;;9.63;8.30;;;;;;;32.23;37.31;99464.75;5095371;28;20070;-82
2022/07/07 08:19:03;;;;;;;9.13;8.15;;;;;;;32.17;36.61;99480.69;5095335;28;20130;-81
2022/07/07 08:21:30;;;;;;;8.90;8.10;;;;;;;32.14;36.75;99472.88;5088638;28;20106;-81
2022/07/07 08:23:58;;;;;;;10.75;8.07;;;;;;;32.14;36.42;99475.59;5084176;28;20562;-83
2022/07/07 08:26:26;;;;;;;9.80;8.23;;;;;;;32.17;36.49;99467.19;5075251;28;20052;-83
2022/07/07 08:28:53;;;;;;;11.25;8.70;;;;;;;32.21;36.82;99468.59;5075307;28;20062;-82
2022/07/07 08:31:20;;;;;;;9.23;8.00;;;;;;;32.24;36.52;99479.13;5078145;28;20103;-83
2022/07/07 08:33:47;;;;;;;8.80;7.65;;;;;;;32.07;36.03;99472.56;5082100;28;20048;-84
2022/07/07 08:36:14;;;;;;;10.70;7.28;;;;;;;31.91;36.39;99467.72;5074485;28;20049;-81
2022/07/07 08:38:42;;;;;;;9.20;7.70;;;;;;;31.71;36.68;99463.31;5075045;28;20055;-84
2022/07/07 08:41:09;;;;;;;12.13;8.23;;;;;;;31.71;36.80;99474.94;5076150;28;20057;-85
2022/07/07 08:43:36;;;;;;;8.40;7.55;;;;;;;31.80;36.60;99470.56;5075159;28;20154;-86
2022/07/07 08:46:03;;;;;;;12.35;7.90;;;;;;;31.70;37.17;99448.09;5075326;28;20056;-82
2022/07/07 08:48:30;;;;;;;12.65;7.93;;;;;;;31.78;37.01;99472.53;5075488;28;20056;-84
2022/07/07 08:50:59;;;;;;;10.82;7.88;;;;;;;31.69;36.96;99454.50;5090478;28;20106;-82
2022/07/07 08:53:32;;;;;;;10.68;8.50;;;;;;;31.90;37.16;99468.72;5075234;28;20056;-83
2022/07/07 08:56:05;;;;;;;8.57;7.68;;;;;;;32.07;36.50;99456.38;5075124;28;20071;-84
2022/07/07 08:58:35;;;;;;;10.25;7.40;;;;;;;32.10;36.97;99476.88;5086831;28;20036;-83
2022/07/07 09:01:23;;;;;;;10.07;8.45;;;;;;;32.19;36.59;99466.03;5086599;28;20053;-83
2022/07/07 09:03:50;;;;;;;8.77;7.88;;;;;;;32.28;35.81;99464.31;5075375;28;20049;-82
2022/07/07 09:06:17;;;;;;;12.25;7.63;;;;;;;32.34;35.24;99463.75;5074576;28;20574;-83
2022/07/07 09:08:51;;;;;;;10.25;7.47;;;;;;;32.24;34.67;99438.59;5076244;28;20048;-82
2022/07/07 09:11:30;;;;;;;16.20;7.22;;;;;;;32.29;34.15;99455.25;5083844;28;20135;-83
2022/07/07 09:14:16;;;;;;;11.52;8.10;;;;;;;32.23;34.54;99470.16;5075050;28;20059;-84
2022/07/07 09:16:44;;;;;;;11.15;7.65;;;;;;;32.30;34.13;99470.44;5074731;28;20056;-82
2022/07/07 09:19:19;;;;;;;10.52;7.57;;;;;;;32.44;33.79;99461.06;5075139;28;20048;-84
2022/07/07 09:21:47;;;;;;;8.90;8.00;;;;;;;32.44;33.27;99459.19;5074166;28;20075;-82
2022/07/07 09:24:14;;;;;;;10.20;7.90;;;;;;;32.36;33.36;99447.41;5073718;28;20105;-83
2022/07/07 09:26:44;;;;;;;10.20;7.90;;;;;;;32.39;33.31;99450.66;5074227;28;20577;-84
2022/07/07 09:29:19;;;;;;;9.18;8.25;;;;;;;32.47;33.49;99462.59;5076025;28;20052;-83
2022/07/07 09:31:53;;;;;;;11.23;8.32;;;;;;;32.36;33.57;99437.44;5074601;28;20052;-83
2022/07/07 09:34:23;;;;;;;11.35;8.57;;;;;;;32.60;33.11;99473.97;5074194;28;20083;-82
2022/07/07 09:40:00;;;;;;;13.02;9.10;;;;;;;32.66;33.01;99467.16;5073863;28;20099;-82
2022/07/07 09:42:36;;;;;;;10.88;9.35;;;;;;;32.67;32.97;99448.06;5074304;28;20052;-85
2022/07/07 09:45:10;;;;;;;13.95;9.55;;;;;;;32.80;33.00;99474.78;5073734;28;20048;-83
2022/07/07 09:47:38;;;;;;;11.75;9.85;;;;;;;32.71;32.51;99459.44;5073163;28;20076;-83
2022/07/07 09:50:14;;;;;;;12.73;8.85;;;;;;;32.71;32.88;99473.81;5073515;28;20056;-81
2022/07/07 09:52:47;;;;;;;12.27;8.88;;;;;;;32.62;32.76;99459.31;5073586;28;20117;-82
2022/07/07 09:55:15;;;;;;;11.27;8.50;;;;;;;32.63;32.54;99473.69;5073914;28;20056;-82
2022/07/07 09:57:44;;;;;;;13.23;8.77;;;;;;;32.65;32.95;99468.97;5073416;28;20078;-84
2022/07/07 10:00:12;;;;;;;14.15;9.20;;;;;;;32.82;32.79;99476.34;5073328;28;20105;-81
2022/07/07 10:02:42;;;;;;;14.85;10.27;;;;;;;32.73;33.07;99471.81;5073146;28;20575;-79
2022/07/07 10:05:09;;;;;;;12.38;10.35;;;;;;;32.73;32.97;99455.59;5073058;28;20605;-83
2022/07/07 10:07:36;;;;;;;13.27;10.55;;;;;;;32.73;33.47;99465.56;5073069;28;20061;-81
2022/07/07 10:10:10;;;;;;;16.13;11.00;;;;;;;32.65;32.76;99447.34;5073133;28;20053;-82
2022/07/07 10:12:44;;;;;;;17.52;11.38;;;;;;;32.87;32.28;99466.94;5073508;28;20081;-84
2022/07/07 10:15:12;;;;;;;13.55;10.48;;;;;;;32.95;32.13;99472.47;5073561;28;20052;-85
2022/07/07 10:17:41;;;;;;;14.43;10.52;;;;;;;32.91;32.21;99471.03;5073755;28;20106;-86
2022/07/07 10:20:10;;;;;;;16.50;11.32;;;;;;;33.00;32.09;99465.63;5073787;28;20513;-85
2022/07/07 10:23:03;;;;;;;15.50;11.15;;;;;;;33.04;32.14;99458.03;5074279;28;20052;-89
2022/07/07 10:25:59;;;;;;;17.10;11.65;;;;;;;33.05;32.09;99471.41;5058992;28;20051;-87
2022/07/07 10:28:51;;;;;;;16.53;10.87;;;;;;;33.00;31.75;99454.78;5073490;28;20143;-85
2022/07/07 10:31:25;;;;;;;15.23;11.40;;;;;;;32.93;31.50;99469.88;5055716;28;20049;-84
2022/07/07 10:33:59;;;;;;;18.65;12.57;;;;;;;32.87;31.76;99469.63;5073669;28;20505;-88
2022/07/07 10:36:27;;;;;;;16.30;11.70;;;;;;;32.71;31.75;99454.03;5075939;28;20071;-85
2022/07/07 10:38:57;;;;;;;16.95;12.23;;;;;;;32.54;32.51;99469.16;5115228;28;20069;-82
2022/07/07 10:41:25;;;;;;;14.50;11.32;;;;;;;32.45;32.90;99452.78;5100482;28;20055;-82
2022/07/07 10:44:12;;;;;;;12.50;10.80;;;;;;;32.55;32.75;99465.47;5097060;28;20059;-82
2022/07/07 10:46:39;;;;;;;12.75;11.40;;;;;;;32.59;32.56;99459.63;5134641;28;20040;-83
2022/07/07 10:49:11;;;;;;;20.23;12.57;;;;;;;32.59;32.20;99447.94;5116454;28;20062;-83
2022/07/07 10:51:57;;;;;;;18.23;12.05;;;;;;;32.75;31.94;99460.84;5107282;28;20051;-85
2022/07/07 10:54:39;;;;;;;17.70;14.25;;;;;;;32.93;31.13;99469.03;5099696;28;20402;-85
2022/07/07 10:57:09;;;;;;;14.48;12.63;;;;;;;33.26;31.09;99473.09;5092129;28;20061;-84
2022/07/07 11:00:04;;;;;;;16.90;13.23;;;;;;;33.39;30.30;99459.19;5107928;28;20105;-83
2022/07/07 11:02:33;;;;;;;15.18;12.98;;;;;;;33.30;30.78;99470.91;5143967;27;20038;-87
2022/07/07 11:05:02;;;;;;;15.40;12.30;;;;;;;33.14;31.30;99467.00;5113547;28;20067;-82
2022/07/07 11:07:29;;;;;;;16.27;12.48;;;;;;;33.00;31.42;99462.91;5123717;28;20055;-83
2022/07/07 11:10:10;;;;;;;15.80;11.93;;;;;;;32.88;31.36;99445.16;5114981;28;20052;-82
2022/07/07 11:12:41;;;;;;;14.38;11.50;;;;;;;33.10;31.49;99465.59;5098632;28;20125;-82
2022/07/07 11:15:21;;;;;;;16.92;11.73;;;;;;;33.23;30.72;99462.53;5097848;28;20048;-83
2022/07/07 11:18:07;;;;;;;14.05;11.90;;;;;;;33.28;30.94;99462.97;5127345;28;20057;-84
2022/07/07 11:20:35;;;;;;;18.95;13.18;;;;;;;33.38;30.67;99460.19;5101055;28;20081;-84
2022/07/07 11:23:11;;;;;;;18.75;13.98;;;;;;;33.59;30.57;99449.09;5101767;28;20449;-84
2022/07/07 11:25:40;;;;;;;19.08;11.93;;;;;;;33.66;30.70;99455.63;5102334;28;20047;-85
2022/07/07 11:28:08;;;;;;;16.25;12.80;;;;;;;33.64;31.25;99447.66;5116288;28;20051;-83
2022/07/07 11:30:39;;;;;;;16.77;12.38;;;;;;;33.56;30.88;99449.41;5092858;28;20515;-82